Arcos de la Frontera, Spain
Current Conditions -  °F | °C
As of 7:30 AM on Sunday 21 Dec 2014 (Local Time) from LEJR Reporting Station
Moderate Fog Moderate Fog  
Wind Chill: 45°   Ceiling: 100
Heat Index: 45°   Visibility: 0.09mi
Dew Point: 45°   Wind: 0mph
Humidity: 100%   Direction: NA
Pressure: 30.42"   Gusts: NA
Location:  36.75°N, 5.81°W
Report Text: LEJR 210630Z 00000KT 0150 R20/0375N FG VV001 07/07 Q1030
Loading
Personal Weather Stations






























Interactive Weather Map New forecast layout! Learn more

10-Day Weather Forecast

Advertisements
Track Severe Weather on mobile